sensor_id;sensor_type;location;lat;lon;timestamp;P1;durP1;ratioP1;P2;durP2;ratioP2
20629;SDS011;17386;43.846;25.950;2024-02-14T00:01:25;3.50;;;1.90;;
20629;SDS011;17386;43.846;25.950;2024-02-14T00:03:50;3.90;;;1.83;;
20629;SDS011;17386;43.846;25.950;2024-02-14T00:06:16;2.85;;;1.65;;
20629;SDS011;17386;43.846;25.950;2024-02-14T00:08:41;3.78;;;2.00;;
20629;SDS011;17386;43.846;25.950;2024-02-14T00:11:07;3.25;;;1.60;;
20629;SDS011;17386;43.846;25.950;2024-02-14T00:13:32;4.25;;;1.92;;
20629;SDS011;17386;43.846;25.950;2024-02-14T00:16:01;2.95;;;1.60;;
20629;SDS011;17386;43.846;25.950;2024-02-14T00:18:27;3.25;;;1.80;;
20629;SDS011;17386;43.846;25.950;2024-02-14T00:20:54;3.65;;;1.95;;
20629;SDS011;17386;43.846;25.950;2024-02-14T00:23:19;3.53;;;1.63;;
20629;SDS011;17386;43.846;25.950;2024-02-14T00:25:45;3.72;;;1.63;;
20629;SDS011;17386;43.846;25.950;2024-02-14T00:28:10;4.40;;;2.05;;
20629;SDS011;17386;43.846;25.950;2024-02-14T00:30:36;5.03;;;2.05;;
20629;SDS011;17386;43.846;25.950;2024-02-14T00:33:01;3.42;;;1.67;;
20629;SDS011;17386;43.846;25.950;2024-02-14T00:35:26;3.25;;;1.42;;
20629;SDS011;17386;43.846;25.950;2024-02-14T00:37:52;4.13;;;2.05;;
20629;SDS011;17386;43.846;25.950;2024-02-14T00:40:17;5.28;;;1.95;;
20629;SDS011;17386;43.846;25.950;2024-02-14T00:42:43;4.35;;;1.75;;
20629;SDS011;17386;43.846;25.950;2024-02-14T00:45:08;4.72;;;1.60;;
20629;SDS011;17386;43.846;25.950;2024-02-14T00:47:34;4.32;;;1.80;;
20629;SDS011;17386;43.846;25.950;2024-02-14T00:50:01;3.22;;;1.58;;
20629;SDS011;17386;43.846;25.950;2024-02-14T00:52:27;4.45;;;1.70;;
20629;SDS011;17386;43.846;25.950;2024-02-14T00:54:52;3.40;;;1.60;;
20629;SDS011;17386;43.846;25.950;2024-02-14T00:57:17;2.78;;;1.40;;
20629;SDS011;17386;43.846;25.950;2024-02-14T00:59:44;3.67;;;1.58;;
20629;SDS011;17386;43.846;25.950;2024-02-14T01:02:09;2.55;;;1.38;;
20629;SDS011;17386;43.846;25.950;2024-02-14T01:04:35;3.08;;;1.58;;
20629;SDS011;17386;43.846;25.950;2024-02-14T01:07:03;3.20;;;1.42;;
20629;SDS011;17386;43.846;25.950;2024-02-14T01:09:29;2.13;;;1.25;;
20629;SDS011;17386;43.846;25.950;2024-02-14T01:11:54;1.85;;;1.05;;
20629;SDS011;17386;43.846;25.950;2024-02-14T01:14:20;2.90;;;1.48;;
20629;SDS011;17386;43.846;25.950;2024-02-14T01:16:46;2.17;;;1.23;;
20629;SDS011;17386;43.846;25.950;2024-02-14T01:19:12;2.70;;;1.27;;
20629;SDS011;17386;43.846;25.950;2024-02-14T01:21:38;2.00;;;1.20;;
20629;SDS011;17386;43.846;25.950;2024-02-14T01:24:04;1.98;;;1.20;;
20629;SDS011;17386;43.846;25.950;2024-02-14T01:26:30;1.90;;;1.10;;
20629;SDS011;17386;43.846;25.950;2024-02-14T01:28:57;2.17;;;1.23;;
20629;SDS011;17386;43.846;25.950;2024-02-14T01:31:22;2.65;;;1.38;;
20629;SDS011;17386;43.846;25.950;2024-02-14T01:33:48;3.75;;;1.30;;
20629;SDS011;17386;43.846;25.950;2024-02-14T01:36:13;2.00;;;1.10;;
20629;SDS011;17386;43.846;25.950;2024-02-14T01:38:39;1.27;;;0.95;;
20629;SDS011;17386;43.846;25.950;2024-02-14T01:41:05;2.35;;;1.13;;
20629;SDS011;17386;43.846;25.950;2024-02-14T01:43:30;1.30;;;1.10;;
20629;SDS011;17386;43.846;25.950;2024-02-14T01:46:03;2.75;;;1.20;;
20629;SDS011;17386;43.846;25.950;2024-02-14T01:48:30;1.38;;;0.90;;
20629;SDS011;17386;43.846;25.950;2024-02-14T01:50:56;1.67;;;1.10;;
20629;SDS011;17386;43.846;25.950;2024-02-14T01:53:23;2.05;;;1.00;;
20629;SDS011;17386;43.846;25.950;2024-02-14T01:55:49;2.25;;;1.20;;
20629;SDS011;17386;43.846;25.950;2024-02-14T01:58:14;2.03;;;1.02;;
20629;SDS011;17386;43.846;25.950;2024-02-14T02:00:40;1.58;;;0.88;;
20629;SDS011;17386;43.846;25.950;2024-02-14T02:03:06;2.63;;;1.08;;
20629;SDS011;17386;43.846;25.950;2024-02-14T02:05:31;1.52;;;1.10;;
20629;SDS011;17386;43.846;25.950;2024-02-14T02:07:58;1.50;;;0.88;;
20629;SDS011;17386;43.846;25.950;2024-02-14T02:10:24;1.90;;;1.10;;
20629;SDS011;17386;43.846;25.950;2024-02-14T02:12:50;2.10;;;1.10;;
20629;SDS011;17386;43.846;25.950;2024-02-14T02:15:16;2.85;;;1.33;;
20629;SDS011;17386;43.846;25.950;2024-02-14T02:17:42;1.08;;;0.80;;
20629;SDS011;17386;43.846;25.950;2024-02-14T02:20:10;1.50;;;1.00;;
20629;SDS011;17386;43.846;25.950;2024-02-14T02:22:36;2.33;;;1.02;;
20629;SDS011;17386;43.846;25.950;2024-02-14T02:25:02;1.30;;;0.75;;
20629;SDS011;17386;43.846;25.950;2024-02-14T02:27:28;1.13;;;0.80;;
20629;SDS011;17386;43.846;25.950;2024-02-14T02:29:53;2.55;;;1.05;;
20629;SDS011;17386;43.846;25.950;2024-02-14T02:32:19;1.17;;;0.70;;
20629;SDS011;17386;43.846;25.950;2024-02-14T02:34:44;1.15;;;0.70;;
20629;SDS011;17386;43.846;25.950;2024-02-14T02:37:10;1.67;;;0.90;;
20629;SDS011;17386;43.846;25.950;2024-02-14T02:39:36;2.10;;;0.90;;
20629;SDS011;17386;43.846;25.950;2024-02-14T02:42:02;1.30;;;0.73;;
20629;SDS011;17386;43.846;25.950;2024-02-14T02:44:28;1.63;;;0.80;;
20629;SDS011;17386;43.846;25.950;2024-02-14T02:46:54;1.40;;;0.60;;
20629;SDS011;17386;43.846;25.950;2024-02-14T02:49:20;1.38;;;0.73;;
20629;SDS011;17386;43.846;25.950;2024-02-14T02:51:47;1.10;;;0.70;;
20629;SDS011;17386;43.846;25.950;2024-02-14T02:54:13;0.95;;;0.68;;
20629;SDS011;17386;43.846;25.950;2024-02-14T02:56:38;0.88;;;0.70;;
20629;SDS011;17386;43.846;25.950;2024-02-14T02:59:05;1.70;;;0.80;;
20629;SDS011;17386;43.846;25.950;2024-02-14T03:01:37;1.17;;;0.70;;
20629;SDS011;17386;43.846;25.950;2024-02-14T03:04:03;2.30;;;0.65;;
20629;SDS011;17386;43.846;25.950;2024-02-14T03:06:28;1.48;;;0.70;;
20629;SDS011;17386;43.846;25.950;2024-02-14T03:08:54;1.38;;;0.70;;
20629;SDS011;17386;43.846;25.950;2024-02-14T03:11:21;1.50;;;0.80;;
20629;SDS011;17386;43.846;25.950;2024-02-14T03:13:46;0.63;;;0.57;;
20629;SDS011;17386;43.846;25.950;2024-02-14T03:16:14;0.90;;;0.55;;
20629;SDS011;17386;43.846;25.950;2024-02-14T03:18:40;1.65;;;0.80;;
20629;SDS011;17386;43.846;25.950;2024-02-14T03:21:06;0.82;;;0.70;;
20629;SDS011;17386;43.846;25.950;2024-02-14T03:23:31;2.08;;;0.70;;
20629;SDS011;17386;43.846;25.950;2024-02-14T03:25:57;0.88;;;0.77;;
20629;SDS011;17386;43.846;25.950;2024-02-14T03:28:22;1.00;;;0.75;;
20629;SDS011;17386;43.846;25.950;2024-02-14T03:30:48;1.42;;;0.65;;
20629;SDS011;17386;43.846;25.950;2024-02-14T03:33:14;2.55;;;1.00;;
20629;SDS011;17386;43.846;25.950;2024-02-14T03:35:40;1.60;;;0.82;;
20629;SDS011;17386;43.846;25.950;2024-02-14T03:38:06;1.45;;;0.80;;
20629;SDS011;17386;43.846;25.950;2024-02-14T03:40:34;1.25;;;0.50;;
20629;SDS011;17386;43.846;25.950;2024-02-14T03:43:01;1.33;;;0.70;;
20629;SDS011;17386;43.846;25.950;2024-02-14T03:45:27;1.13;;;0.70;;
20629;SDS011;17386;43.846;25.950;2024-02-14T03:47:54;0.82;;;0.50;;
20629;SDS011;17386;43.846;25.950;2024-02-14T03:50:20;1.35;;;0.70;;
20629;SDS011;17386;43.846;25.950;2024-02-14T03:52:46;2.95;;;0.80;;
20629;SDS011;17386;43.846;25.950;2024-02-14T03:55:12;1.10;;;0.90;;
20629;SDS011;17386;43.846;25.950;2024-02-14T03:57:39;1.15;;;0.70;;
20629;SDS011;17386;43.846;25.950;2024-02-14T04:00:05;0.93;;;0.65;;
20629;SDS011;17386;43.846;25.950;2024-02-14T04:02:35;1.17;;;0.80;;
20629;SDS011;17386;43.846;25.950;2024-02-14T04:05:00;1.45;;;0.80;;
20629;SDS011;17386;43.846;25.950;2024-02-14T04:07:27;0.98;;;0.80;;
20629;SDS011;17386;43.846;25.950;2024-02-14T04:09:53;1.20;;;0.70;;
20629;SDS011;17386;43.846;25.950;2024-02-14T04:12:18;1.33;;;0.73;;
20629;SDS011;17386;43.846;25.950;2024-02-14T04:14:44;1.77;;;0.60;;
20629;SDS011;17386;43.846;25.950;2024-02-14T04:17:09;1.00;;;0.60;;
20629;SDS011;17386;43.846;25.950;2024-02-14T04:22:02;0.95;;;0.68;;
20629;SDS011;17386;43.846;25.950;2024-02-14T04:24:28;1.10;;;0.70;;
20629;SDS011;17386;43.846;25.950;2024-02-14T04:26:53;0.57;;;0.50;;
20629;SDS011;17386;43.846;25.950;2024-02-14T04:31:46;1.70;;;0.73;;
20629;SDS011;17386;43.846;25.950;2024-02-14T04:34:12;1.08;;;0.70;;
20629;SDS011;17386;43.846;25.950;2024-02-14T04:36:38;1.02;;;0.70;;
20629;SDS011;17386;43.846;25.950;2024-02-14T04:39:05;2.35;;;0.80;;
20629;SDS011;17386;43.846;25.950;2024-02-14T04:41:30;1.63;;;0.90;;
20629;SDS011;17386;43.846;25.950;2024-02-14T04:43:56;1.20;;;0.70;;
20629;SDS011;17386;43.846;25.950;2024-02-14T04:46:21;1.33;;;0.82;;
20629;SDS011;17386;43.846;25.950;2024-02-14T04:48:47;2.05;;;0.90;;
20629;SDS011;17386;43.846;25.950;2024-02-14T04:51:13;2.72;;;0.88;;
20629;SDS011;17386;43.846;25.950;2024-02-14T04:53:38;4.40;;;1.00;;
20629;SDS011;17386;43.846;25.950;2024-02-14T04:56:04;2.45;;;1.10;;
20629;SDS011;17386;43.846;25.950;2024-02-14T04:58:29;1.50;;;0.95;;
20629;SDS011;17386;43.846;25.950;2024-02-14T05:00:55;2.05;;;0.98;;
20629;SDS011;17386;43.846;25.950;2024-02-14T05:03:20;1.50;;;0.80;;
20629;SDS011;17386;43.846;25.950;2024-02-14T05:05:46;0.95;;;0.80;;
20629;SDS011;17386;43.846;25.950;2024-02-14T05:08:11;1.35;;;1.00;;
20629;SDS011;17386;43.846;25.950;2024-02-14T05:10:37;1.48;;;1.00;;
20629;SDS011;17386;43.846;25.950;2024-02-14T05:13:02;4.53;;;1.15;;
20629;SDS011;17386;43.846;25.950;2024-02-14T05:15:28;2.63;;;1.35;;
20629;SDS011;17386;43.846;25.950;2024-02-14T05:17:54;4.32;;;1.95;;
20629;SDS011;17386;43.846;25.950;2024-02-14T05:20:21;3.85;;;1.95;;
20629;SDS011;17386;43.846;25.950;2024-02-14T05:22:46;4.35;;;1.80;;
20629;SDS011;17386;43.846;25.950;2024-02-14T05:25:12;5.35;;;1.90;;
20629;SDS011;17386;43.846;25.950;2024-02-14T05:27:38;4.32;;;2.00;;
20629;SDS011;17386;43.846;25.950;2024-02-14T05:30:04;3.53;;;1.85;;
20629;SDS011;17386;43.846;25.950;2024-02-14T05:32:33;5.72;;;2.42;;
20629;SDS011;17386;43.846;25.950;2024-02-14T05:34:58;10.20;;;4.60;;
20629;SDS011;17386;43.846;25.950;2024-02-14T05:37:24;12.18;;;4.80;;
20629;SDS011;17386;43.846;25.950;2024-02-14T05:39:52;8.45;;;4.07;;
20629;SDS011;17386;43.846;25.950;2024-02-14T05:42:18;12.20;;;4.82;;
20629;SDS011;17386;43.846;25.950;2024-02-14T05:44:44;7.93;;;3.22;;
20629;SDS011;17386;43.846;25.950;2024-02-14T05:47:09;8.52;;;3.75;;
20629;SDS011;17386;43.846;25.950;2024-02-14T05:49:37;7.28;;;3.72;;
20629;SDS011;17386;43.846;25.950;2024-02-14T05:52:03;6.43;;;2.83;;
20629;SDS011;17386;43.846;25.950;2024-02-14T05:54:29;9.75;;;4.80;;
20629;SDS011;17386;43.846;25.950;2024-02-14T05:56:54;10.82;;;5.15;;
20629;SDS011;17386;43.846;25.950;2024-02-14T05:59:20;11.80;;;6.03;;
20629;SDS011;17386;43.846;25.950;2024-02-14T06:01:46;10.02;;;5.38;;
20629;SDS011;17386;43.846;25.950;2024-02-14T06:04:11;9.30;;;4.95;;
20629;SDS011;17386;43.846;25.950;2024-02-14T06:06:37;7.82;;;3.92;;
20629;SDS011;17386;43.846;25.950;2024-02-14T06:09:03;8.02;;;3.33;;
20629;SDS011;17386;43.846;25.950;2024-02-14T06:11:34;6.78;;;3.33;;
20629;SDS011;17386;43.846;25.950;2024-02-14T06:14:00;4.72;;;2.50;;
20629;SDS011;17386;43.846;25.950;2024-02-14T06:16:25;5.05;;;2.47;;
20629;SDS011;17386;43.846;25.950;2024-02-14T06:18:50;5.10;;;2.33;;
20629;SDS011;17386;43.846;25.950;2024-02-14T06:21:16;5.70;;;2.92;;
20629;SDS011;17386;43.846;25.950;2024-02-14T06:23:41;5.47;;;2.30;;
20629;SDS011;17386;43.846;25.950;2024-02-14T06:26:07;5.00;;;1.85;;
20629;SDS011;17386;43.846;25.950;2024-02-14T06:28:32;3.50;;;1.80;;
20629;SDS011;17386;43.846;25.950;2024-02-14T06:31:01;4.00;;;1.90;;
20629;SDS011;17386;43.846;25.950;2024-02-14T06:33:26;3.88;;;1.73;;
20629;SDS011;17386;43.846;25.950;2024-02-14T06:35:51;4.40;;;1.88;;
20629;SDS011;17386;43.846;25.950;2024-02-14T06:38:17;6.82;;;3.00;;
20629;SDS011;17386;43.846;25.950;2024-02-14T06:40:42;6.90;;;3.30;;
20629;SDS011;17386;43.846;25.950;2024-02-14T06:43:08;4.43;;;2.25;;
20629;SDS011;17386;43.846;25.950;2024-02-14T06:45:34;4.15;;;1.85;;
20629;SDS011;17386;43.846;25.950;2024-02-14T06:47:59;5.82;;;2.17;;
20629;SDS011;17386;43.846;25.950;2024-02-14T06:50:25;3.83;;;2.13;;
20629;SDS011;17386;43.846;25.950;2024-02-14T06:52:50;5.20;;;2.90;;
20629;SDS011;17386;43.846;25.950;2024-02-14T06:55:16;4.68;;;1.77;;
20629;SDS011;17386;43.846;25.950;2024-02-14T06:57:42;2.67;;;1.60;;
20629;SDS011;17386;43.846;25.950;2024-02-14T07:00:07;9.23;;;4.20;;
20629;SDS011;17386;43.846;25.950;2024-02-14T07:02:34;6.70;;;2.92;;
20629;SDS011;17386;43.846;25.950;2024-02-14T07:04:59;4.82;;;2.30;;
20629;SDS011;17386;43.846;25.950;2024-02-14T07:07:24;4.43;;;2.28;;
20629;SDS011;17386;43.846;25.950;2024-02-14T07:09:51;4.22;;;2.47;;
20629;SDS011;17386;43.846;25.950;2024-02-14T07:12:16;8.77;;;3.97;;
20629;SDS011;17386;43.846;25.950;2024-02-14T07:14:41;6.32;;;3.10;;
20629;SDS011;17386;43.846;25.950;2024-02-14T07:17:07;6.30;;;2.83;;
20629;SDS011;17386;43.846;25.950;2024-02-14T07:19:33;6.22;;;2.75;;
20629;SDS011;17386;43.846;25.950;2024-02-14T07:21:59;4.75;;;2.40;;
20629;SDS011;17386;43.846;25.950;2024-02-14T07:24:24;4.93;;;2.25;;
20629;SDS011;17386;43.846;25.950;2024-02-14T07:26:50;4.43;;;2.17;;
20629;SDS011;17386;43.846;25.950;2024-02-14T07:29:18;5.35;;;2.78;;
20629;SDS011;17386;43.846;25.950;2024-02-14T07:31:43;5.47;;;2.55;;
20629;SDS011;17386;43.846;25.950;2024-02-14T07:34:09;5.35;;;2.25;;
20629;SDS011;17386;43.846;25.950;2024-02-14T07:36:34;4.15;;;2.15;;
20629;SDS011;17386;43.846;25.950;2024-02-14T07:39:00;3.58;;;2.10;;
20629;SDS011;17386;43.846;25.950;2024-02-14T07:41:25;3.92;;;2.08;;
20629;SDS011;17386;43.846;25.950;2024-02-14T07:43:50;4.88;;;2.40;;
20629;SDS011;17386;43.846;25.950;2024-02-14T07:46:19;5.28;;;2.50;;
20629;SDS011;17386;43.846;25.950;2024-02-14T07:48:47;6.40;;;2.83;;
20629;SDS011;17386;43.846;25.950;2024-02-14T07:51:13;7.38;;;3.25;;
20629;SDS011;17386;43.846;25.950;2024-02-14T07:53:39;7.25;;;3.35;;
20629;SDS011;17386;43.846;25.950;2024-02-14T07:56:05;5.53;;;2.92;;
20629;SDS011;17386;43.846;25.950;2024-02-14T07:58:30;10.38;;;3.85;;
20629;SDS011;17386;43.846;25.950;2024-02-14T08:00:56;7.63;;;3.10;;
20629;SDS011;17386;43.846;25.950;2024-02-14T08:03:21;5.55;;;3.22;;
20629;SDS011;17386;43.846;25.950;2024-02-14T08:05:46;5.38;;;2.60;;
20629;SDS011;17386;43.846;25.950;2024-02-14T08:08:12;5.35;;;2.92;;
20629;SDS011;17386;43.846;25.950;2024-02-14T08:10:37;5.35;;;2.90;;
20629;SDS011;17386;43.846;25.950;2024-02-14T08:13:03;4.65;;;2.67;;
20629;SDS011;17386;43.846;25.950;2024-02-14T08:15:29;4.90;;;2.30;;
20629;SDS011;17386;43.846;25.950;2024-02-14T08:17:55;4.13;;;2.10;;
20629;SDS011;17386;43.846;25.950;2024-02-14T08:20:21;4.45;;;2.28;;
20629;SDS011;17386;43.846;25.950;2024-02-14T08:22:47;4.35;;;2.30;;
20629;SDS011;17386;43.846;25.950;2024-02-14T08:25:14;4.07;;;2.33;;
20629;SDS011;17386;43.846;25.950;2024-02-14T08:27:39;4.75;;;2.50;;
20629;SDS011;17386;43.846;25.950;2024-02-14T08:30:05;3.47;;;2.20;;
20629;SDS011;17386;43.846;25.950;2024-02-14T08:32:31;5.43;;;2.38;;
20629;SDS011;17386;43.846;25.950;2024-02-14T08:34:58;5.35;;;2.65;;
20629;SDS011;17386;43.846;25.950;2024-02-14T08:37:23;5.30;;;2.63;;
20629;SDS011;17386;43.846;25.950;2024-02-14T08:39:50;4.53;;;2.13;;
20629;SDS011;17386;43.846;25.950;2024-02-14T08:42:15;5.88;;;2.75;;
20629;SDS011;17386;43.846;25.950;2024-02-14T08:44:41;3.45;;;2.00;;
20629;SDS011;17386;43.846;25.950;2024-02-14T08:47:06;3.45;;;1.50;;
20629;SDS011;17386;43.846;25.950;2024-02-14T08:49:32;5.68;;;2.22;;
20629;SDS011;17386;43.846;25.950;2024-02-14T08:51:58;3.25;;;1.60;;
20629;SDS011;17386;43.846;25.950;2024-02-14T08:54:24;3.70;;;1.63;;
20629;SDS011;17386;43.846;25.950;2024-02-14T08:56:49;4.00;;;2.13;;
20629;SDS011;17386;43.846;25.950;2024-02-14T09:01:42;4.20;;;2.13;;
20629;SDS011;17386;43.846;25.950;2024-02-14T09:04:08;2.15;;;1.45;;
20629;SDS011;17386;43.846;25.950;2024-02-14T09:06:33;2.65;;;1.52;;
20629;SDS011;17386;43.846;25.950;2024-02-14T09:08:59;2.80;;;1.40;;
20629;SDS011;17386;43.846;25.950;2024-02-14T09:11:24;2.40;;;1.40;;
20629;SDS011;17386;43.846;25.950;2024-02-14T09:13:50;2.28;;;1.40;;
20629;SDS011;17386;43.846;25.950;2024-02-14T09:16:19;3.70;;;1.90;;
20629;SDS011;17386;43.846;25.950;2024-02-14T09:18:46;4.03;;;1.98;;
20629;SDS011;17386;43.846;25.950;2024-02-14T09:21:11;3.28;;;1.70;;
20629;SDS011;17386;43.846;25.950;2024-02-14T09:23:37;4.15;;;2.05;;
20629;SDS011;17386;43.846;25.950;2024-02-14T09:26:05;4.35;;;1.80;;
20629;SDS011;17386;43.846;25.950;2024-02-14T09:28:30;4.22;;;2.30;;
20629;SDS011;17386;43.846;25.950;2024-02-14T09:30:58;4.25;;;2.00;;
20629;SDS011;17386;43.846;25.950;2024-02-14T09:33:23;3.72;;;1.92;;
20629;SDS011;17386;43.846;25.950;2024-02-14T09:35:49;5.75;;;2.42;;
20629;SDS011;17386;43.846;25.950;2024-02-14T09:38:17;3.97;;;2.03;;
20629;SDS011;17386;43.846;25.950;2024-02-14T09:40:42;2.65;;;1.40;;
20629;SDS011;17386;43.846;25.950;2024-02-14T09:43:17;3.03;;;1.70;;
20629;SDS011;17386;43.846;25.950;2024-02-14T09:46:07;5.30;;;2.55;;
20629;SDS011;17386;43.846;25.950;2024-02-14T09:48:32;4.03;;;2.00;;
20629;SDS011;17386;43.846;25.950;2024-02-14T09:50:59;6.28;;;2.25;;
20629;SDS011;17386;43.846;25.950;2024-02-14T09:53:25;5.03;;;2.30;;
20629;SDS011;17386;43.846;25.950;2024-02-14T09:55:53;6.55;;;2.13;;
20629;SDS011;17386;43.846;25.950;2024-02-14T09:58:19;5.53;;;2.50;;
20629;SDS011;17386;43.846;25.950;2024-02-14T10:00:45;6.00;;;2.08;;
20629;SDS011;17386;43.846;25.950;2024-02-14T10:03:10;4.78;;;2.20;;
20629;SDS011;17386;43.846;25.950;2024-02-14T10:05:36;4.35;;;1.88;;
20629;SDS011;17386;43.846;25.950;2024-02-14T10:08:01;3.13;;;1.70;;
20629;SDS011;17386;43.846;25.950;2024-02-14T10:10:28;6.10;;;2.15;;
20629;SDS011;17386;43.846;25.950;2024-02-14T10:12:54;4.75;;;1.58;;
20629;SDS011;17386;43.846;25.950;2024-02-14T10:15:21;5.88;;;1.65;;
20629;SDS011;17386;43.846;25.950;2024-02-14T10:17:47;3.20;;;1.95;;
20629;SDS011;17386;43.846;25.950;2024-02-14T10:20:16;3.88;;;1.80;;
20629;SDS011;17386;43.846;25.950;2024-02-14T10:22:42;2.33;;;1.35;;
20629;SDS011;17386;43.846;25.950;2024-02-14T10:25:07;4.53;;;2.22;;
20629;SDS011;17386;43.846;25.950;2024-02-14T10:27:37;3.70;;;1.50;;
20629;SDS011;17386;43.846;25.950;2024-02-14T10:30:07;3.60;;;2.05;;
20629;SDS011;17386;43.846;25.950;2024-02-14T10:32:36;2.17;;;1.40;;
20629;SDS011;17386;43.846;25.950;2024-02-14T10:35:05;4.95;;;1.50;;
20629;SDS011;17386;43.846;25.950;2024-02-14T10:37:38;2.40;;;1.35;;
20629;SDS011;17386;43.846;25.950;2024-02-14T10:40:04;2.92;;;1.75;;
20629;SDS011;17386;43.846;25.950;2024-02-14T10:42:31;6.00;;;1.67;;
20629;SDS011;17386;43.846;25.950;2024-02-14T10:44:57;3.08;;;1.23;;
20629;SDS011;17386;43.846;25.950;2024-02-14T10:47:24;3.05;;;1.20;;
20629;SDS011;17386;43.846;25.950;2024-02-14T10:50:04;2.95;;;1.40;;
20629;SDS011;17386;43.846;25.950;2024-02-14T10:52:32;4.20;;;2.03;;
20629;SDS011;17386;43.846;25.950;2024-02-14T10:55:01;5.30;;;2.22;;
20629;SDS011;17386;43.846;25.950;2024-02-14T10:57:28;8.38;;;4.05;;
20629;SDS011;17386;43.846;25.950;2024-02-14T10:59:54;6.78;;;3.00;;
20629;SDS011;17386;43.846;25.950;2024-02-14T11:02:20;9.98;;;4.30;;
20629;SDS011;17386;43.846;25.950;2024-02-14T11:04:48;10.85;;;4.18;;
20629;SDS011;17386;43.846;25.950;2024-02-14T11:07:18;6.13;;;2.85;;
20629;SDS011;17386;43.846;25.950;2024-02-14T11:09:45;5.43;;;2.45;;
20629;SDS011;17386;43.846;25.950;2024-02-14T11:12:11;3.28;;;1.90;;
20629;SDS011;17386;43.846;25.950;2024-02-14T11:14:36;5.82;;;2.30;;
20629;SDS011;17386;43.846;25.950;2024-02-14T11:17:04;5.57;;;2.08;;
20629;SDS011;17386;43.846;25.950;2024-02-14T11:19:34;4.22;;;1.85;;
20629;SDS011;17386;43.846;25.950;2024-02-14T11:22:18;4.50;;;2.13;;
20629;SDS011;17386;43.846;25.950;2024-02-14T11:24:47;4.45;;;2.17;;
20629;SDS011;17386;43.846;25.950;2024-02-14T11:27:13;3.30;;;1.95;;
20629;SDS011;17386;43.846;25.950;2024-02-14T11:29:40;3.67;;;1.98;;
20629;SDS011;17386;43.846;25.950;2024-02-14T11:32:06;4.60;;;1.80;;
20629;SDS011;17386;43.846;25.950;2024-02-14T11:34:34;4.68;;;2.20;;
20629;SDS011;17386;43.846;25.950;2024-02-14T11:37:00;3.47;;;1.90;;
20629;SDS011;17386;43.846;25.950;2024-02-14T11:39:26;4.80;;;2.00;;
20629;SDS011;17386;43.846;25.950;2024-02-14T11:41:51;7.60;;;3.15;;
20629;SDS011;17386;43.846;25.950;2024-02-14T11:44:18;3.35;;;2.05;;
20629;SDS011;17386;43.846;25.950;2024-02-14T11:46:47;6.22;;;2.58;;
20629;SDS011;17386;43.846;25.950;2024-02-14T11:49:13;5.90;;;2.55;;
20629;SDS011;17386;43.846;25.950;2024-02-14T11:51:39;5.32;;;1.85;;
20629;SDS011;17386;43.846;25.950;2024-02-14T11:54:06;9.43;;;3.85;;
20629;SDS011;17386;43.846;25.950;2024-02-14T11:56:36;7.07;;;2.88;;
20629;SDS011;17386;43.846;25.950;2024-02-14T11:59:06;4.65;;;2.33;;
20629;SDS011;17386;43.846;25.950;2024-02-14T12:01:36;5.07;;;2.10;;
20629;SDS011;17386;43.846;25.950;2024-02-14T12:04:04;5.15;;;2.05;;
20629;SDS011;17386;43.846;25.950;2024-02-14T12:06:33;4.22;;;2.13;;
20629;SDS011;17386;43.846;25.950;2024-02-14T12:09:00;4.40;;;2.58;;
20629;SDS011;17386;43.846;25.950;2024-02-14T12:11:37;5.93;;;3.03;;
20629;SDS011;17386;43.846;25.950;2024-02-14T12:14:07;7.15;;;3.20;;
20629;SDS011;17386;43.846;25.950;2024-02-14T12:16:37;10.75;;;4.65;;
20629;SDS011;17386;43.846;25.950;2024-02-14T12:19:22;10.90;;;4.57;;
20629;SDS011;17386;43.846;25.950;2024-02-14T12:21:48;8.35;;;4.32;;
20629;SDS011;17386;43.846;25.950;2024-02-14T12:24:14;9.30;;;4.53;;
20629;SDS011;17386;43.846;25.950;2024-02-14T12:26:40;10.15;;;5.22;;
20629;SDS011;17386;43.846;25.950;2024-02-14T12:29:06;12.13;;;5.68;;
20629;SDS011;17386;43.846;25.950;2024-02-14T12:31:33;11.85;;;6.80;;
20629;SDS011;17386;43.846;25.950;2024-02-14T12:34:00;11.43;;;6.35;;
20629;SDS011;17386;43.846;25.950;2024-02-14T12:36:30;11.02;;;5.45;;
20629;SDS011;17386;43.846;25.950;2024-02-14T12:38:58;12.25;;;6.43;;
20629;SDS011;17386;43.846;25.950;2024-02-14T12:41:24;11.40;;;5.53;;
20629;SDS011;17386;43.846;25.950;2024-02-14T12:43:51;9.38;;;5.00;;
20629;SDS011;17386;43.846;25.950;2024-02-14T12:46:17;8.27;;;4.63;;
20629;SDS011;17386;43.846;25.950;2024-02-14T12:48:43;9.65;;;4.70;;
20629;SDS011;17386;43.846;25.950;2024-02-14T12:51:08;8.55;;;3.70;;
20629;SDS011;17386;43.846;25.950;2024-02-14T12:53:34;5.72;;;3.08;;
20629;SDS011;17386;43.846;25.950;2024-02-14T12:55:59;8.68;;;3.78;;
20629;SDS011;17386;43.846;25.950;2024-02-14T12:58:26;9.10;;;4.57;;
20629;SDS011;17386;43.846;25.950;2024-02-14T13:00:51;7.10;;;3.42;;
20629;SDS011;17386;43.846;25.950;2024-02-14T13:03:18;5.47;;;2.95;;
20629;SDS011;17386;43.846;25.950;2024-02-14T13:05:44;4.93;;;2.47;;
20629;SDS011;17386;43.846;25.950;2024-02-14T13:08:10;6.53;;;3.30;;
20629;SDS011;17386;43.846;25.950;2024-02-14T13:10:36;10.43;;;3.63;;
20629;SDS011;17386;43.846;25.950;2024-02-14T13:13:02;8.32;;;4.18;;
20629;SDS011;17386;43.846;25.950;2024-02-14T13:15:27;6.97;;;4.20;;
20629;SDS011;17386;43.846;25.950;2024-02-14T13:17:53;8.55;;;3.90;;
20629;SDS011;17386;43.846;25.950;2024-02-14T13:20:19;8.70;;;4.07;;
20629;SDS011;17386;43.846;25.950;2024-02-14T13:22:44;7.82;;;3.78;;
20629;SDS011;17386;43.846;25.950;2024-02-14T13:25:09;7.18;;;3.83;;
20629;SDS011;17386;43.846;25.950;2024-02-14T13:27:35;8.48;;;4.13;;
20629;SDS011;17386;43.846;25.950;2024-02-14T13:30:01;8.48;;;4.03;;
20629;SDS011;17386;43.846;25.950;2024-02-14T13:32:27;10.77;;;5.10;;
20629;SDS011;17386;43.846;25.950;2024-02-14T13:34:52;9.15;;;4.57;;
20629;SDS011;17386;43.846;25.950;2024-02-14T13:37:18;10.48;;;4.80;;
20629;SDS011;17386;43.846;25.950;2024-02-14T13:39:44;11.55;;;4.60;;
20629;SDS011;17386;43.846;25.950;2024-02-14T13:42:10;11.13;;;5.47;;
20629;SDS011;17386;43.846;25.950;2024-02-14T13:44:35;11.65;;;5.13;;
20629;SDS011;17386;43.846;25.950;2024-02-14T13:47:00;11.43;;;4.90;;
20629;SDS011;17386;43.846;25.950;2024-02-14T13:49:26;13.68;;;5.53;;
20629;SDS011;17386;43.846;25.950;2024-02-14T13:51:53;11.98;;;5.22;;
20629;SDS011;17386;43.846;25.950;2024-02-14T13:54:19;10.68;;;5.28;;
20629;SDS011;17386;43.846;25.950;2024-02-14T13:56:45;9.85;;;5.13;;
20629;SDS011;17386;43.846;25.950;2024-02-14T13:59:11;10.55;;;4.97;;
20629;SDS011;17386;43.846;25.950;2024-02-14T14:01:36;10.70;;;5.00;;
20629;SDS011;17386;43.846;25.950;2024-02-14T14:04:03;12.55;;;5.22;;
20629;SDS011;17386;43.846;25.950;2024-02-14T14:06:29;11.95;;;4.72;;
20629;SDS011;17386;43.846;25.950;2024-02-14T14:08:55;11.35;;;4.78;;
20629;SDS011;17386;43.846;25.950;2024-02-14T14:11:20;10.43;;;5.05;;
20629;SDS011;17386;43.846;25.950;2024-02-14T14:13:45;9.40;;;4.88;;
20629;SDS011;17386;43.846;25.950;2024-02-14T14:16:11;12.70;;;5.70;;
20629;SDS011;17386;43.846;25.950;2024-02-14T14:18:36;10.50;;;4.75;;
20629;SDS011;17386;43.846;25.950;2024-02-14T14:21:02;13.95;;;6.38;;
20629;SDS011;17386;43.846;25.950;2024-02-14T14:23:28;10.48;;;5.07;;
20629;SDS011;17386;43.846;25.950;2024-02-14T14:25:54;10.50;;;5.57;;
20629;SDS011;17386;43.846;25.950;2024-02-14T14:28:19;11.45;;;5.85;;
20629;SDS011;17386;43.846;25.950;2024-02-14T14:30:50;11.50;;;5.60;;
20629;SDS011;17386;43.846;25.950;2024-02-14T14:33:19;9.70;;;4.82;;
20629;SDS011;17386;43.846;25.950;2024-02-14T14:35:45;15.27;;;5.53;;